Heath, Texas
Current Conditions -  °F | °C
As of 6:55 PM on Monday 26 Jan 2015 (Local Time) from KF46 Reporting Station
Clear Clear  
Wind Chill: 63°   Ceiling: Unl
Heat Index: 63°   Visibility: 10mi
Dew Point: 39°   Wind: 6mph
Humidity: 40%   Direction: 220°SW
Pressure: 30.06"   Gusts: NA
Location:  32.8584°N, 96.4261°W
Report Text: KF46 270055Z AUTO 22005KT 10SM CLR 17/04 A3006 RMK AO2 T01740037
Loading
Personal Weather Stations






























Interactive Weather Map New forecast layout! Learn more

10-Day Weather Forecast

Advertisements
Track Severe Weather on mobile